sensor_id;sensor_type;location;lat;lon;timestamp;temperature;humidity
21033;DHT22;10675;47.976;7.824;2022-12-18T00:01:29;-4.10;99.90
21033;DHT22;10675;47.976;7.824;2022-12-18T00:03:57;-4.20;99.90
21033;DHT22;10675;47.976;7.824;2022-12-18T00:06:27;-4.20;99.90
21033;DHT22;10675;47.976;7.824;2022-12-18T00:08:54;-4.30;99.90
21033;DHT22;10675;47.976;7.824;2022-12-18T00:11:22;-4.30;99.90
21033;DHT22;10675;47.976;7.824;2022-12-18T00:13:48;-4.20;99.90
21033;DHT22;10675;47.976;7.824;2022-12-18T00:16:19;-4.20;99.90
21033;DHT22;10675;47.976;7.824;2022-12-18T00:18:47;-4.20;99.90
21033;DHT22;10675;47.976;7.824;2022-12-18T00:21:13;-4.20;99.90
21033;DHT22;10675;47.976;7.824;2022-12-18T00:23:40;-4.40;99.90
21033;DHT22;10675;47.976;7.824;2022-12-18T00:26:09;-4.50;99.90
21033;DHT22;10675;47.976;7.824;2022-12-18T00:28:35;-4.40;99.90
21033;DHT22;10675;47.976;7.824;2022-12-18T00:31:06;-4.30;99.90
21033;DHT22;10675;47.976;7.824;2022-12-18T00:33:32;-4.30;99.90
21033;DHT22;10675;47.976;7.824;2022-12-18T00:36:02;-4.40;99.90
21033;DHT22;10675;47.976;7.824;2022-12-18T00:38:28;-4.50;99.90
21033;DHT22;10675;47.976;7.824;2022-12-18T00:40:53;-4.70;99.90
21033;DHT22;10675;47.976;7.824;2022-12-18T00:43:19;-4.80;99.90
21033;DHT22;10675;47.976;7.824;2022-12-18T00:45:45;-4.80;99.90
21033;DHT22;10675;47.976;7.824;2022-12-18T00:48:11;-4.70;99.90
21033;DHT22;10675;47.976;7.824;2022-12-18T00:50:36;-4.80;99.90
21033;DHT22;10675;47.976;7.824;2022-12-18T00:53:02;-4.70;99.90
21033;DHT22;10675;47.976;7.824;2022-12-18T00:55:27;-4.80;99.90
21033;DHT22;10675;47.976;7.824;2022-12-18T00:57:53;-4.90;99.90
21033;DHT22;10675;47.976;7.824;2022-12-18T01:00:18;-4.80;99.90
21033;DHT22;10675;47.976;7.824;2022-12-18T01:02:44;-4.70;99.90
21033;DHT22;10675;47.976;7.824;2022-12-18T01:05:12;-4.80;99.90
21033;DHT22;10675;47.976;7.824;2022-12-18T01:07:37;-4.80;99.90
21033;DHT22;10675;47.976;7.824;2022-12-18T01:10:04;-4.70;99.90
21033;DHT22;10675;47.976;7.824;2022-12-18T01:12:30;-4.60;99.90
21033;DHT22;10675;47.976;7.824;2022-12-18T01:14:56;-4.60;99.90
21033;DHT22;10675;47.976;7.824;2022-12-18T01:17:22;-4.60;99.90
21033;DHT22;10675;47.976;7.824;2022-12-18T01:19:48;-4.50;99.90
21033;DHT22;10675;47.976;7.824;2022-12-18T01:22:13;-4.60;99.90
21033;DHT22;10675;47.976;7.824;2022-12-18T01:24:39;-4.60;99.90
21033;DHT22;10675;47.976;7.824;2022-12-18T01:27:04;-4.70;99.90
21033;DHT22;10675;47.976;7.824;2022-12-18T01:29:30;-4.60;99.90
21033;DHT22;10675;47.976;7.824;2022-12-18T01:31:56;-4.50;99.90
21033;DHT22;10675;47.976;7.824;2022-12-18T01:34:22;-4.60;99.90
21033;DHT22;10675;47.976;7.824;2022-12-18T01:36:48;-4.60;99.90
21033;DHT22;10675;47.976;7.824;2022-12-18T01:39:14;-4.70;99.90
21033;DHT22;10675;47.976;7.824;2022-12-18T01:41:41;-4.60;99.90
21033;DHT22;10675;47.976;7.824;2022-12-18T01:47:34;-4.60;99.90
21033;DHT22;10675;47.976;7.824;2022-12-18T01:50:36;-4.70;99.90
21033;DHT22;10675;47.976;7.824;2022-12-18T01:55:53;-4.40;99.90
21033;DHT22;10675;47.976;7.824;2022-12-18T01:58:21;-4.40;99.90
21033;DHT22;10675;47.976;7.824;2022-12-18T02:00:48;-4.30;99.90
21033;DHT22;10675;47.976;7.824;2022-12-18T02:03:14;-4.60;99.90
21033;DHT22;10675;47.976;7.824;2022-12-18T02:08:58;-4.80;99.90
21033;DHT22;10675;47.976;7.824;2022-12-18T02:14:31;-4.60;99.90
21033;DHT22;10675;47.976;7.824;2022-12-18T02:22:26;-4.50;99.90
21033;DHT22;10675;47.976;7.824;2022-12-18T02:27:44;-4.60;99.90
21033;DHT22;10675;47.976;7.824;2022-12-18T02:30:11;-4.60;99.90
21033;DHT22;10675;47.976;7.824;2022-12-18T02:32:43;-5.20;99.90
21033;DHT22;10675;47.976;7.824;2022-12-18T02:35:15;-4.70;99.90
21033;DHT22;10675;47.976;7.824;2022-12-18T02:37:43;-4.70;99.90
21033;DHT22;10675;47.976;7.824;2022-12-18T02:40:11;-4.70;99.90
21033;DHT22;10675;47.976;7.824;2022-12-18T02:42:37;-4.70;99.90
21033;DHT22;10675;47.976;7.824;2022-12-18T02:45:03;-4.70;99.90
21033;DHT22;10675;47.976;7.824;2022-12-18T02:47:32;-4.70;99.90
21033;DHT22;10675;47.976;7.824;2022-12-18T02:50:19;-4.60;99.90
21033;DHT22;10675;47.976;7.824;2022-12-18T02:53:13;-4.60;99.90
21033;DHT22;10675;47.976;7.824;2022-12-18T02:58:56;-4.80;99.90
21033;DHT22;10675;47.976;7.824;2022-12-18T03:01:31;-4.80;99.90
21033;DHT22;10675;47.976;7.824;2022-12-18T03:04:23;-4.70;99.90
21033;DHT22;10675;47.976;7.824;2022-12-18T03:06:56;-4.70;99.90
21033;DHT22;10675;47.976;7.824;2022-12-18T03:09:29;-4.70;99.90
21033;DHT22;10675;47.976;7.824;2022-12-18T03:14:57;-5.00;99.90
21033;DHT22;10675;47.976;7.824;2022-12-18T03:17:27;-5.10;99.90
21033;DHT22;10675;47.976;7.824;2022-12-18T03:19:54;-5.10;99.90
21033;DHT22;10675;47.976;7.824;2022-12-18T03:22:23;-5.10;99.90
21033;DHT22;10675;47.976;7.824;2022-12-18T03:24:53;-5.00;99.90
21033;DHT22;10675;47.976;7.824;2022-12-18T03:27:20;-5.10;99.90
21033;DHT22;10675;47.976;7.824;2022-12-18T03:30:12;-5.20;99.90
21033;DHT22;10675;47.976;7.824;2022-12-18T03:32:52;-5.30;99.90
21033;DHT22;10675;47.976;7.824;2022-12-18T03:35:29;-5.20;99.90
21033;DHT22;10675;47.976;7.824;2022-12-18T03:37:56;-5.10;99.90
21033;DHT22;10675;47.976;7.824;2022-12-18T03:40:31;-5.20;99.90
21033;DHT22;10675;47.976;7.824;2022-12-18T03:45:57;-5.20;99.90
21033;DHT22;10675;47.976;7.824;2022-12-18T03:48:55;-5.20;99.90
21033;DHT22;10675;47.976;7.824;2022-12-18T03:51:39;-5.30;99.90
21033;DHT22;10675;47.976;7.824;2022-12-18T03:54:08;-5.50;99.90
21033;DHT22;10675;47.976;7.824;2022-12-18T03:56:42;-5.40;99.90
21033;DHT22;10675;47.976;7.824;2022-12-18T03:59:11;-5.40;99.90
21033;DHT22;10675;47.976;7.824;2022-12-18T04:01:40;-5.40;99.90
21033;DHT22;10675;47.976;7.824;2022-12-18T04:04:08;-5.50;99.90
21033;DHT22;10675;47.976;7.824;2022-12-18T04:06:35;-5.40;99.90
21033;DHT22;10675;47.976;7.824;2022-12-18T04:09:02;-5.50;99.90
21033;DHT22;10675;47.976;7.824;2022-12-18T04:11:27;-5.40;99.90
21033;DHT22;10675;47.976;7.824;2022-12-18T04:13:57;-5.40;99.90
21033;DHT22;10675;47.976;7.824;2022-12-18T04:16:24;-5.40;99.90
21033;DHT22;10675;47.976;7.824;2022-12-18T04:18:50;-5.40;99.90
21033;DHT22;10675;47.976;7.824;2022-12-18T04:21:16;-5.30;99.90
21033;DHT22;10675;47.976;7.824;2022-12-18T04:23:41;-5.50;99.90
21033;DHT22;10675;47.976;7.824;2022-12-18T04:26:07;-5.30;99.90
21033;DHT22;10675;47.976;7.824;2022-12-18T04:28:32;-5.30;99.90
21033;DHT22;10675;47.976;7.824;2022-12-18T04:30:58;-5.40;99.90
21033;DHT22;10675;47.976;7.824;2022-12-18T04:33:23;-5.50;99.90
21033;DHT22;10675;47.976;7.824;2022-12-18T04:35:49;-5.60;99.90
21033;DHT22;10675;47.976;7.824;2022-12-18T04:38:14;-5.70;99.90
21033;DHT22;10675;47.976;7.824;2022-12-18T04:40:40;-5.60;99.90
21033;DHT22;10675;47.976;7.824;2022-12-18T04:43:06;-5.40;99.90
21033;DHT22;10675;47.976;7.824;2022-12-18T04:45:32;-5.30;99.90
21033;DHT22;10675;47.976;7.824;2022-12-18T04:47:58;-5.30;99.90
21033;DHT22;10675;47.976;7.824;2022-12-18T04:50:24;-5.20;99.90
21033;DHT22;10675;47.976;7.824;2022-12-18T04:52:49;-5.30;99.90
21033;DHT22;10675;47.976;7.824;2022-12-18T04:55:15;-5.40;99.90
21033;DHT22;10675;47.976;7.824;2022-12-18T04:57:41;-5.40;99.90
21033;DHT22;10675;47.976;7.824;2022-12-18T05:00:08;-5.50;99.90
21033;DHT22;10675;47.976;7.824;2022-12-18T05:02:34;-5.80;99.90
21033;DHT22;10675;47.976;7.824;2022-12-18T05:04:59;-5.90;99.90
21033;DHT22;10675;47.976;7.824;2022-12-18T05:07:25;-6.00;99.90
21033;DHT22;10675;47.976;7.824;2022-12-18T05:09:50;-6.10;99.90
21033;DHT22;10675;47.976;7.824;2022-12-18T05:12:16;-6.00;99.90
21033;DHT22;10675;47.976;7.824;2022-12-18T05:14:42;-6.10;99.90
21033;DHT22;10675;47.976;7.824;2022-12-18T05:17:07;-6.00;99.90
21033;DHT22;10675;47.976;7.824;2022-12-18T05:19:33;-6.20;99.90
21033;DHT22;10675;47.976;7.824;2022-12-18T05:21:59;-6.20;99.90
21033;DHT22;10675;47.976;7.824;2022-12-18T05:24:24;-6.20;99.90
21033;DHT22;10675;47.976;7.824;2022-12-18T05:26:50;-6.20;99.90
21033;DHT22;10675;47.976;7.824;2022-12-18T05:29:15;-6.20;99.90
21033;DHT22;10675;47.976;7.824;2022-12-18T05:31:41;-6.30;99.90
21033;DHT22;10675;47.976;7.824;2022-12-18T05:34:07;-6.30;99.90
21033;DHT22;10675;47.976;7.824;2022-12-18T05:36:32;-6.30;99.90
21033;DHT22;10675;47.976;7.824;2022-12-18T05:38:58;-6.30;99.90
21033;DHT22;10675;47.976;7.824;2022-12-18T05:41:25;-6.20;99.90
21033;DHT22;10675;47.976;7.824;2022-12-18T05:43:51;-6.20;99.90
21033;DHT22;10675;47.976;7.824;2022-12-18T05:46:17;-6.10;99.90
21033;DHT22;10675;47.976;7.824;2022-12-18T05:48:44;-6.30;99.90
21033;DHT22;10675;47.976;7.824;2022-12-18T05:51:13;-6.30;99.90
21033;DHT22;10675;47.976;7.824;2022-12-18T05:53:40;-6.40;99.90
21033;DHT22;10675;47.976;7.824;2022-12-18T05:56:08;-6.40;99.90
21033;DHT22;10675;47.976;7.824;2022-12-18T05:58:34;-6.50;99.90
21033;DHT22;10675;47.976;7.824;2022-12-18T06:01:26;-6.50;99.90
21033;DHT22;10675;47.976;7.824;2022-12-18T06:03:52;-6.40;99.90
21033;DHT22;10675;47.976;7.824;2022-12-18T06:06:23;-6.40;99.90
21033;DHT22;10675;47.976;7.824;2022-12-18T06:08:50;-6.50;99.90
21033;DHT22;10675;47.976;7.824;2022-12-18T06:11:18;-6.40;99.90
21033;DHT22;10675;47.976;7.824;2022-12-18T06:13:44;-6.40;99.90
21033;DHT22;10675;47.976;7.824;2022-12-18T06:16:10;-6.60;99.90
21033;DHT22;10675;47.976;7.824;2022-12-18T06:18:35;-6.50;99.90
21033;DHT22;10675;47.976;7.824;2022-12-18T06:21:02;-6.50;99.90
21033;DHT22;10675;47.976;7.824;2022-12-18T06:23:28;-6.30;99.90
21033;DHT22;10675;47.976;7.824;2022-12-18T06:25:53;-6.40;99.90
21033;DHT22;10675;47.976;7.824;2022-12-18T06:28:19;-6.40;99.90
21033;DHT22;10675;47.976;7.824;2022-12-18T06:30:46;-6.40;99.90
21033;DHT22;10675;47.976;7.824;2022-12-18T06:33:13;-6.50;99.90
21033;DHT22;10675;47.976;7.824;2022-12-18T06:35:39;-6.50;99.90
21033;DHT22;10675;47.976;7.824;2022-12-18T06:38:04;-6.60;99.90
21033;DHT22;10675;47.976;7.824;2022-12-18T06:40:30;-6.60;99.90
21033;DHT22;10675;47.976;7.824;2022-12-18T06:42:55;-6.60;99.90
21033;DHT22;10675;47.976;7.824;2022-12-18T06:45:21;-6.50;99.90
21033;DHT22;10675;47.976;7.824;2022-12-18T06:47:46;-6.60;99.90
21033;DHT22;10675;47.976;7.824;2022-12-18T06:50:12;-6.60;99.90
21033;DHT22;10675;47.976;7.824;2022-12-18T06:52:39;-6.70;99.90
21033;DHT22;10675;47.976;7.824;2022-12-18T06:55:09;-6.70;99.90
21033;DHT22;10675;47.976;7.824;2022-12-18T06:57:34;-6.80;99.90
21033;DHT22;10675;47.976;7.824;2022-12-18T07:00:00;-6.90;99.90
21033;DHT22;10675;47.976;7.824;2022-12-18T07:02:26;-6.90;99.90
21033;DHT22;10675;47.976;7.824;2022-12-18T07:04:51;-6.90;99.90
21033;DHT22;10675;47.976;7.824;2022-12-18T07:07:17;-6.80;99.90
21033;DHT22;10675;47.976;7.824;2022-12-18T07:09:42;-6.70;99.90
21033;DHT22;10675;47.976;7.824;2022-12-18T07:12:08;-6.90;99.90
21033;DHT22;10675;47.976;7.824;2022-12-18T07:14:34;-6.90;99.90
21033;DHT22;10675;47.976;7.824;2022-12-18T07:16:59;-6.80;99.90
21033;DHT22;10675;47.976;7.824;2022-12-18T07:19:25;-6.80;99.90
21033;DHT22;10675;47.976;7.824;2022-12-18T07:21:51;-6.90;99.90
21033;DHT22;10675;47.976;7.824;2022-12-18T07:24:16;-7.00;99.90
21033;DHT22;10675;47.976;7.824;2022-12-18T07:26:45;-7.00;99.90
21033;DHT22;10675;47.976;7.824;2022-12-18T07:29:10;-7.10;99.90
21033;DHT22;10675;47.976;7.824;2022-12-18T07:31:36;-7.20;99.90
21033;DHT22;10675;47.976;7.824;2022-12-18T07:34:01;-7.10;99.90
21033;DHT22;10675;47.976;7.824;2022-12-18T07:36:27;-7.10;99.90
21033;DHT22;10675;47.976;7.824;2022-12-18T07:38:52;-7.10;99.90
21033;DHT22;10675;47.976;7.824;2022-12-18T07:41:18;-7.10;99.90
21033;DHT22;10675;47.976;7.824;2022-12-18T07:43:44;-7.00;99.90
21033;DHT22;10675;47.976;7.824;2022-12-18T07:46:11;-7.00;99.90
21033;DHT22;10675;47.976;7.824;2022-12-18T07:48:39;-7.00;99.90
21033;DHT22;10675;47.976;7.824;2022-12-18T07:51:06;-6.80;99.90
21033;DHT22;10675;47.976;7.824;2022-12-18T07:53:33;-6.80;99.90
21033;DHT22;10675;47.976;7.824;2022-12-18T07:56:10;-6.70;99.90
21033;DHT22;10675;47.976;7.824;2022-12-18T07:58:36;-7.00;99.90
21033;DHT22;10675;47.976;7.824;2022-12-18T08:01:07;-7.00;99.90
21033;DHT22;10675;47.976;7.824;2022-12-18T08:03:33;-7.20;99.90
21033;DHT22;10675;47.976;7.824;2022-12-18T08:06:00;-7.20;99.90
21033;DHT22;10675;47.976;7.824;2022-12-18T08:08:26;-7.20;99.90
21033;DHT22;10675;47.976;7.824;2022-12-18T08:10:52;-7.10;99.90
21033;DHT22;10675;47.976;7.824;2022-12-18T08:13:17;-6.90;99.90
21033;DHT22;10675;47.976;7.824;2022-12-18T08:15:43;-6.80;99.90
21033;DHT22;10675;47.976;7.824;2022-12-18T08:18:08;-6.90;99.90
21033;DHT22;10675;47.976;7.824;2022-12-18T08:20:34;-6.90;99.90
21033;DHT22;10675;47.976;7.824;2022-12-18T08:22:59;-6.80;99.90
21033;DHT22;10675;47.976;7.824;2022-12-18T08:25:25;-6.70;99.90
21033;DHT22;10675;47.976;7.824;2022-12-18T08:27:51;-6.60;99.90
21033;DHT22;10675;47.976;7.824;2022-12-18T08:30:16;-6.50;99.90
21033;DHT22;10675;47.976;7.824;2022-12-18T08:32:42;-6.40;99.90
21033;DHT22;10675;47.976;7.824;2022-12-18T08:35:07;-6.40;99.90
21033;DHT22;10675;47.976;7.824;2022-12-18T08:37:33;-6.30;99.90
21033;DHT22;10675;47.976;7.824;2022-12-18T08:39:59;-6.30;99.90
21033;DHT22;10675;47.976;7.824;2022-12-18T08:42:25;-6.30;99.90
21033;DHT22;10675;47.976;7.824;2022-12-18T08:45:09;-6.30;99.90
21033;DHT22;10675;47.976;7.824;2022-12-18T08:47:35;-6.10;99.90
21033;DHT22;10675;47.976;7.824;2022-12-18T08:50:00;-6.00;99.90
21033;DHT22;10675;47.976;7.824;2022-12-18T08:52:26;-6.00;99.90
21033;DHT22;10675;47.976;7.824;2022-12-18T08:54:51;-5.90;99.90
21033;DHT22;10675;47.976;7.824;2022-12-18T08:57:17;-5.90;99.90
21033;DHT22;10675;47.976;7.824;2022-12-18T08:59:43;-6.00;99.90
21033;DHT22;10675;47.976;7.824;2022-12-18T09:02:10;-6.00;99.90
21033;DHT22;10675;47.976;7.824;2022-12-18T09:04:36;-5.90;99.90
21033;DHT22;10675;47.976;7.824;2022-12-18T09:07:02;-5.80;99.90
21033;DHT22;10675;47.976;7.824;2022-12-18T09:09:27;-5.60;99.90
21033;DHT22;10675;47.976;7.824;2022-12-18T09:11:54;-5.60;99.90
21033;DHT22;10675;47.976;7.824;2022-12-18T09:14:20;-5.70;99.90
21033;DHT22;10675;47.976;7.824;2022-12-18T09:16:45;-5.50;99.90
21033;DHT22;10675;47.976;7.824;2022-12-18T09:19:11;-5.50;99.90
21033;DHT22;10675;47.976;7.824;2022-12-18T09:21:36;-5.50;99.90
21033;DHT22;10675;47.976;7.824;2022-12-18T09:24:03;-5.30;99.90
21033;DHT22;10675;47.976;7.824;2022-12-18T09:26:29;-5.10;99.90
21033;DHT22;10675;47.976;7.824;2022-12-18T09:28:55;-5.10;99.90
21033;DHT22;10675;47.976;7.824;2022-12-18T09:31:23;-5.00;99.90
21033;DHT22;10675;47.976;7.824;2022-12-18T09:33:49;-5.00;99.90
21033;DHT22;10675;47.976;7.824;2022-12-18T09:36:16;-4.90;99.90
21033;DHT22;10675;47.976;7.824;2022-12-18T09:38:43;-4.80;99.90
21033;DHT22;10675;47.976;7.824;2022-12-18T09:41:17;-4.80;99.90
21033;DHT22;10675;47.976;7.824;2022-12-18T09:43:47;-4.80;99.90
21033;DHT22;10675;47.976;7.824;2022-12-18T09:46:21;-4.80;99.90
21033;DHT22;10675;47.976;7.824;2022-12-18T09:48:52;-4.80;99.90
21033;DHT22;10675;47.976;7.824;2022-12-18T09:51:27;-4.80;99.90
21033;DHT22;10675;47.976;7.824;2022-12-18T09:53:57;-4.80;99.90
21033;DHT22;10675;47.976;7.824;2022-12-18T09:56:28;-4.80;99.90
21033;DHT22;10675;47.976;7.824;2022-12-18T09:59:02;-4.60;99.90
21033;DHT22;10675;47.976;7.824;2022-12-18T10:01:29;-4.40;99.90
21033;DHT22;10675;47.976;7.824;2022-12-18T10:03:56;-4.30;99.90
21033;DHT22;10675;47.976;7.824;2022-12-18T10:12:08;-4.30;99.90
21033;DHT22;10675;47.976;7.824;2022-12-18T10:14:53;-3.90;99.90
21033;DHT22;10675;47.976;7.824;2022-12-18T10:20:32;-4.20;99.90
21033;DHT22;10675;47.976;7.824;2022-12-18T10:25:50;-4.00;99.90
21033;DHT22;10675;47.976;7.824;2022-12-18T10:28:19;-4.00;99.90
21033;DHT22;10675;47.976;7.824;2022-12-18T10:30:45;-3.80;99.90
21033;DHT22;10675;47.976;7.824;2022-12-18T10:33:18;-1.40;99.90
21033;DHT22;10675;47.976;7.824;2022-12-18T10:35:44;4.90;99.90
21033;DHT22;10675;47.976;7.824;2022-12-18T10:41:03;-1.60;99.90
21033;DHT22;10675;47.976;7.824;2022-12-18T10:43:35;-2.30;99.90
21033;DHT22;10675;47.976;7.824;2022-12-18T10:51:05;-2.60;99.90
21033;DHT22;10675;47.976;7.824;2022-12-18T10:53:33;-2.70;99.90
21033;DHT22;10675;47.976;7.824;2022-12-18T10:55:59;-2.70;99.90
21033;DHT22;10675;47.976;7.824;2022-12-18T10:58:28;-2.60;99.90
21033;DHT22;10675;47.976;7.824;2022-12-18T11:01:13;-2.60;99.90
21033;DHT22;10675;47.976;7.824;2022-12-18T11:06:12;-2.50;99.90
21033;DHT22;10675;47.976;7.824;2022-12-18T11:08:38;-2.60;99.90
21033;DHT22;10675;47.976;7.824;2022-12-18T11:11:28;-2.60;99.90
21033;DHT22;10675;47.976;7.824;2022-12-18T11:14:03;-2.60;99.90
21033;DHT22;10675;47.976;7.824;2022-12-18T11:16:34;-2.60;99.90
21033;DHT22;10675;47.976;7.824;2022-12-18T11:19:26;-2.50;99.90
21033;DHT22;10675;47.976;7.824;2022-12-18T11:21:53;-2.70;99.90
21033;DHT22;10675;47.976;7.824;2022-12-18T11:24:35;-2.60;99.90
21033;DHT22;10675;47.976;7.824;2022-12-18T11:27:06;-2.50;99.90
21033;DHT22;10675;47.976;7.824;2022-12-18T11:29:41;-2.60;99.90
21033;DHT22;10675;47.976;7.824;2022-12-18T11:32:38;-2.60;99.90
21033;DHT22;10675;47.976;7.824;2022-12-18T11:35:16;-2.60;99.90
21033;DHT22;10675;47.976;7.824;2022-12-18T11:37:47;-2.70;99.90
21033;DHT22;10675;47.976;7.824;2022-12-18T11:40:18;-2.80;99.90
21033;DHT22;10675;47.976;7.824;2022-12-18T11:42:50;-2.80;99.90
21033;DHT22;10675;47.976;7.824;2022-12-18T11:45:30;-2.80;99.90
21033;DHT22;10675;47.976;7.824;2022-12-18T11:48:05;-2.70;99.90
21033;DHT22;10675;47.976;7.824;2022-12-18T11:50:49;-2.60;99.90
21033;DHT22;10675;47.976;7.824;2022-12-18T11:53:16;-2.60;99.90
21033;DHT22;10675;47.976;7.824;2022-12-18T11:55:56;-2.60;99.90
21033;DHT22;10675;47.976;7.824;2022-12-18T12:07:20;-2.40;99.90
21033;DHT22;10675;47.976;7.824;2022-12-18T12:12:38;-2.40;99.90
21033;DHT22;10675;47.976;7.824;2022-12-18T12:17:52;-2.20;99.90
21033;DHT22;10675;47.976;7.824;2022-12-18T12:20:29;-2.20;99.90
21033;DHT22;10675;47.976;7.824;2022-12-18T12:29:04;-2.20;99.90
21033;DHT22;10675;47.976;7.824;2022-12-18T12:31:48;-2.20;99.90
21033;DHT22;10675;47.976;7.824;2022-12-18T12:34:59;-1.90;99.90
21033;DHT22;10675;47.976;7.824;2022-12-18T12:39:57;-1.90;99.90
21033;DHT22;10675;47.976;7.824;2022-12-18T12:42:40;-1.80;99.90
21033;DHT22;10675;47.976;7.824;2022-12-18T12:45:33;-1.80;99.90
21033;DHT22;10675;47.976;7.824;2022-12-18T12:48:02;-1.80;99.90
21033;DHT22;10675;47.976;7.824;2022-12-18T12:50:33;-1.70;99.90
21033;DHT22;10675;47.976;7.824;2022-12-18T12:53:01;-1.90;99.90
21033;DHT22;10675;47.976;7.824;2022-12-18T12:55:31;-1.90;99.90
21033;DHT22;10675;47.976;7.824;2022-12-18T13:06:37;-1.50;99.90
21033;DHT22;10675;47.976;7.824;2022-12-18T13:09:05;-1.40;99.90
21033;DHT22;10675;47.976;7.824;2022-12-18T13:11:39;-1.30;99.90
21033;DHT22;10675;47.976;7.824;2022-12-18T13:14:31;-1.30;99.90
21033;DHT22;10675;47.976;7.824;2022-12-18T13:19:52;-1.20;99.90
21033;DHT22;10675;47.976;7.824;2022-12-18T13:24:59;-1.00;99.90
21033;DHT22;10675;47.976;7.824;2022-12-18T13:43:43;-1.10;99.90
21033;DHT22;10675;47.976;7.824;2022-12-18T13:49:18;-0.90;99.90
21033;DHT22;10675;47.976;7.824;2022-12-18T13:51:52;-1.00;99.90
21033;DHT22;10675;47.976;7.824;2022-12-18T13:57:02;-0.80;99.90
21033;DHT22;10675;47.976;7.824;2022-12-18T13:59:38;-0.90;99.90
21033;DHT22;10675;47.976;7.824;2022-12-18T14:02:21;-0.90;99.90
21033;DHT22;10675;47.976;7.824;2022-12-18T14:04:48;-0.90;99.90
21033;DHT22;10675;47.976;7.824;2022-12-18T14:07:24;-0.80;99.90
21033;DHT22;10675;47.976;7.824;2022-12-18T14:09:52;-0.90;99.90
21033;DHT22;10675;47.976;7.824;2022-12-18T14:12:24;-0.80;99.90
21033;DHT22;10675;47.976;7.824;2022-12-18T14:17:54;-0.90;99.90
21033;DHT22;10675;47.976;7.824;2022-12-18T14:20:21;-0.80;99.90
21033;DHT22;10675;47.976;7.824;2022-12-18T14:22:48;-0.90;99.90
21033;DHT22;10675;47.976;7.824;2022-12-18T14:27:50;-0.80;99.90
21033;DHT22;10675;47.976;7.824;2022-12-18T14:30:27;-0.80;99.90
21033;DHT22;10675;47.976;7.824;2022-12-18T14:33:00;-0.90;99.90
21033;DHT22;10675;47.976;7.824;2022-12-18T14:35:26;-0.90;99.90
21033;DHT22;10675;47.976;7.824;2022-12-18T14:37:52;-0.80;99.90
21033;DHT22;10675;47.976;7.824;2022-12-18T14:40:17;-1.00;99.90
21033;DHT22;10675;47.976;7.824;2022-12-18T14:42:43;-0.90;99.90
21033;DHT22;10675;47.976;7.824;2022-12-18T14:45:35;-0.90;99.90
21033;DHT22;10675;47.976;7.824;2022-12-18T14:48:12;-1.00;99.90
21033;DHT22;10675;47.976;7.824;2022-12-18T14:50:39;-1.00;99.90
21033;DHT22;10675;47.976;7.824;2022-12-18T14:53:06;-0.90;99.90
21033;DHT22;10675;47.976;7.824;2022-12-18T14:55:32;-1.00;99.90
21033;DHT22;10675;47.976;7.824;2022-12-18T14:57:58;-1.10;99.90
21033;DHT22;10675;47.976;7.824;2022-12-18T15:00:25;-1.10;99.90
21033;DHT22;10675;47.976;7.824;2022-12-18T15:02:56;-1.20;99.90
21033;DHT22;10675;47.976;7.824;2022-12-18T15:05:29;-1.20;99.90
21033;DHT22;10675;47.976;7.824;2022-12-18T15:07:58;-1.30;99.90
21033;DHT22;10675;47.976;7.824;2022-12-18T15:10:29;-1.20;99.90
21033;DHT22;10675;47.976;7.824;2022-12-18T15:20:58;-1.30;99.90
21033;DHT22;10675;47.976;7.824;2022-12-18T15:26:05;-1.30;99.90
21033;DHT22;10675;47.976;7.824;2022-12-18T15:28:43;-1.30;99.90
21033;DHT22;10675;47.976;7.824;2022-12-18T15:33:43;-1.20;99.90
21033;DHT22;10675;47.976;7.824;2022-12-18T15:36:14;-1.20;99.90
21033;DHT22;10675;47.976;7.824;2022-12-18T15:38:40;-1.20;99.90
21033;DHT22;10675;47.976;7.824;2022-12-18T15:41:12;-1.20;99.90
21033;DHT22;10675;47.976;7.824;2022-12-18T15:43:38;-1.20;99.90
21033;DHT22;10675;47.976;7.824;2022-12-18T15:46:06;-1.20;99.90
21033;DHT22;10675;47.976;7.824;2022-12-18T15:48:35;-1.20;99.90
21033;DHT22;10675;47.976;7.824;2022-12-18T15:51:02;-1.30;99.90
21033;DHT22;10675;47.976;7.824;2022-12-18T15:53:31;-1.30;99.90
21033;DHT22;10675;47.976;7.824;2022-12-18T15:55:57;-1.30;99.90
21033;DHT22;10675;47.976;7.824;2022-12-18T15:58:42;-1.30;99.90
21033;DHT22;10675;47.976;7.824;2022-12-18T16:01:09;-1.30;99.90
21033;DHT22;10675;47.976;7.824;2022-12-18T16:03:35;-1.30;99.90
21033;DHT22;10675;47.976;7.824;2022-12-18T16:06:01;-1.30;99.90
21033;DHT22;10675;47.976;7.824;2022-12-18T16:08:28;-1.40;99.90
21033;DHT22;10675;47.976;7.824;2022-12-18T16:10:55;-1.40;99.90
21033;DHT22;10675;47.976;7.824;2022-12-18T16:13:21;-1.30;99.90
21033;DHT22;10675;47.976;7.824;2022-12-18T16:15:46;-1.30;99.90
21033;DHT22;10675;47.976;7.824;2022-12-18T16:18:12;-1.20;99.90
21033;DHT22;10675;47.976;7.824;2022-12-18T16:20:38;-1.30;99.90
21033;DHT22;10675;47.976;7.824;2022-12-18T16:23:04;-1.30;99.90
21033;DHT22;10675;47.976;7.824;2022-12-18T16:25:29;-1.30;99.90
21033;DHT22;10675;47.976;7.824;2022-12-18T16:27:56;-1.30;99.90
21033;DHT22;10675;47.976;7.824;2022-12-18T16:30:24;-1.40;99.90
21033;DHT22;10675;47.976;7.824;2022-12-18T16:32:54;-1.30;99.90
21033;DHT22;10675;47.976;7.824;2022-12-18T16:35:21;-1.20;99.90
21033;DHT22;10675;47.976;7.824;2022-12-18T16:37:46;-1.30;99.90
21033;DHT22;10675;47.976;7.824;2022-12-18T16:40:14;-1.30;99.90
21033;DHT22;10675;47.976;7.824;2022-12-18T16:42:43;-1.30;99.90
21033;DHT22;10675;47.976;7.824;2022-12-18T16:45:12;-1.30;99.90
21033;DHT22;10675;47.976;7.824;2022-12-18T16:47:38;-1.30;99.90
21033;DHT22;10675;47.976;7.824;2022-12-18T16:50:04;-1.30;99.90
21033;DHT22;10675;47.976;7.824;2022-12-18T16:52:30;-1.30;99.90
21033;DHT22;10675;47.976;7.824;2022-12-18T16:54:56;-1.30;99.90
21033;DHT22;10675;47.976;7.824;2022-12-18T16:57:21;-1.30;99.90
21033;DHT22;10675;47.976;7.824;2022-12-18T16:59:47;-1.30;99.90
21033;DHT22;10675;47.976;7.824;2022-12-18T17:02:19;-1.20;99.90
21033;DHT22;10675;47.976;7.824;2022-12-18T17:04:45;-1.20;99.90
21033;DHT22;10675;47.976;7.824;2022-12-18T17:07:11;-1.30;99.90
21033;DHT22;10675;47.976;7.824;2022-12-18T17:09:38;-1.30;99.90
21033;DHT22;10675;47.976;7.824;2022-12-18T17:12:04;-1.30;99.90
21033;DHT22;10675;47.976;7.824;2022-12-18T17:14:32;-1.30;99.90
21033;DHT22;10675;47.976;7.824;2022-12-18T17:16:57;-1.30;99.90
21033;DHT22;10675;47.976;7.824;2022-12-18T17:19:25;-1.30;99.90
21033;DHT22;10675;47.976;7.824;2022-12-18T17:21:51;-1.30;99.90
21033;DHT22;10675;47.976;7.824;2022-12-18T17:24:17;-1.20;99.90
21033;DHT22;10675;47.976;7.824;2022-12-18T17:26:43;-1.30;99.90
21033;DHT22;10675;47.976;7.824;2022-12-18T17:29:14;-1.20;99.90
21033;DHT22;10675;47.976;7.824;2022-12-18T17:31:39;-1.10;99.90
21033;DHT22;10675;47.976;7.824;2022-12-18T17:34:05;-1.20;99.90
21033;DHT22;10675;47.976;7.824;2022-12-18T17:36:31;-1.20;99.90
21033;DHT22;10675;47.976;7.824;2022-12-18T17:38:59;-1.20;99.90
21033;DHT22;10675;47.976;7.824;2022-12-18T17:41:27;-1.20;99.90
21033;DHT22;10675;47.976;7.824;2022-12-18T17:43:54;-1.20;99.90
21033;DHT22;10675;47.976;7.824;2022-12-18T17:46:21;-1.10;99.90
21033;DHT22;10675;47.976;7.824;2022-12-18T17:48:47;-1.10;99.90
21033;DHT22;10675;47.976;7.824;2022-12-18T17:51:13;-1.10;99.90